Etusivu
METAR-TAF:

METAR-TAF

Lentoasemat :

Kramfors, Ruotsi

Leveyspiiri: 63-03N, Pituuspiiri: 017-46E, korkeus merenpinnasta: 10 m

Tämänhetkinen sää

Tämä raportti tehtiin 14 minuuttia sitten, kello 04.50 UTC
Tuuli 11 kn pohjoisen/luoteesta
Lämpötila 8°C
Kosteus 66%
Ilmanpaine 1012 hPa
Näkyvyys 10 km tai enemmän
ei pilviä alle 1500 m:ssä eikä cumulonimbus-pilviä

METAR: ESNK 230450Z 33011KT CAVOK 08/02 Q1012

Aika: 07:04 (05:04 UTC)

Sääennuste

Tämä raportti tehtiin 2 tuntia ja 34 minuuttia sitten, kello 02.30 UTC
Ennuste voimassa 23. päivästä klo 03 UTC - 23. päivään klo 09 UTC
Tuuli 8 kn luoteesta
Näkyvyys 10 km tai enemmän
ei pilviä alle 1500 m:ssä eikä cumulonimbus-pilviä

TAF: ESNK 230230Z 2303/2309 31008KT CAVOK

Säähavainnot ja -ennusteet yli 4000 lentoasemalta (METAR- ja TAF-raportit).

Käytössä olevat sääasemat on merkitty karttaan keltaisilla ja punaisilla pisteillä.

Aseta hiiri pisteen päälle nähdäksesi sääaseman nimen.

Klikkaa sitten nähdäksesi säähavainnot ja -ennusteet.

Kartan vaihtaminen: klikkaa mustalla rastilla varustettuja vihreitä pisteitä, niin voit zoomata sisään; viivalla varustettua vihreää pistettä, niin voit zoomata ulos tai vihreitä nuolia, niin pääset viereisille kartoille.


METAR-TAF: